sensor_id;sensor_type;location;lat;lon;timestamp;pressure;altitude;pressure_sealevel;temperature;humidity
54308;BME280;40208;39.778;2.710;2023-09-07T00:02:41;101327.50;;;22.96;100.00
54308;BME280;40208;39.778;2.710;2023-09-07T00:05:26;101537.31;;;24.25;100.00
54308;BME280;40208;39.778;2.710;2023-09-07T00:08:11;101215.81;;;22.23;100.00
54308;BME280;40208;39.778;2.710;2023-09-07T00:11:02;101198.28;;;21.96;100.00
54308;BME280;40208;39.778;2.710;2023-09-07T00:13:47;101234.94;;;22.31;100.00
54308;BME280;40208;39.778;2.710;2023-09-07T00:16:32;101209.19;;;22.16;100.00
54308;BME280;40208;39.778;2.710;2023-09-07T00:19:20;101203.78;;;22.16;100.00
54308;BME280;40208;39.778;2.710;2023-09-07T00:22:04;101258.53;;;22.50;100.00
54308;BME280;40208;39.778;2.710;2023-09-07T00:24:49;101144.56;;;21.82;100.00
54308;BME280;40208;39.778;2.710;2023-09-07T00:27:34;101346.84;;;22.92;100.00
54308;BME280;40208;39.778;2.710;2023-09-07T00:30:19;101526.28;;;23.97;100.00
54308;BME280;40208;39.778;2.710;2023-09-07T00:33:04;101136.41;;;21.72;100.00
54308;BME280;40208;39.778;2.710;2023-09-07T00:35:49;101153.41;;;21.84;100.00
54308;BME280;40208;39.778;2.710;2023-09-07T00:38:33;101210.28;;;22.25;100.00
54308;BME280;40208;39.778;2.710;2023-09-07T00:41:18;101250.03;;;22.34;100.00
54308;BME280;40208;39.778;2.710;2023-09-07T00:44:03;101180.88;;;21.89;100.00
54308;BME280;40208;39.778;2.710;2023-09-07T00:46:48;101384.53;;;23.25;100.00
54308;BME280;40208;39.778;2.710;2023-09-07T00:49:33;101245.81;;;22.41;100.00
54308;BME280;40208;39.778;2.710;2023-09-07T00:52:18;101293.00;;;22.58;100.00
54308;BME280;40208;39.778;2.710;2023-09-07T00:55:04;101148.53;;;21.78;100.00
54308;BME280;40208;39.778;2.710;2023-09-07T00:57:49;101236.25;;;22.37;100.00
54308;BME280;40208;39.778;2.710;2023-09-07T01:00:34;101076.28;;;21.49;100.00
54308;BME280;40208;39.778;2.710;2023-09-07T01:03:18;101509.41;;;23.94;100.00
54308;BME280;40208;39.778;2.710;2023-09-07T01:08:55;101167.19;;;21.81;100.00
54308;BME280;40208;39.778;2.710;2023-09-07T01:11:42;101192.59;;;21.99;100.00
54308;BME280;40208;39.778;2.710;2023-09-07T01:14:28;101179.03;;;21.90;100.00
54308;BME280;40208;39.778;2.710;2023-09-07T01:17:13;101241.59;;;22.27;100.00
54308;BME280;40208;39.778;2.710;2023-09-07T01:19:58;101222.09;;;22.02;100.00
54308;BME280;40208;39.778;2.710;2023-09-07T01:22:50;101202.22;;;22.13;100.00
54308;BME280;40208;39.778;2.710;2023-09-07T01:25:35;101161.00;;;21.69;100.00
54308;BME280;40208;39.778;2.710;2023-09-07T01:28:20;101227.09;;;22.07;100.00
54308;BME280;40208;39.778;2.710;2023-09-07T01:31:06;101446.97;;;23.34;100.00
54308;BME280;40208;39.778;2.710;2023-09-07T01:33:51;101333.31;;;22.61;100.00
54308;BME280;40208;39.778;2.710;2023-09-07T01:36:36;101254.66;;;22.01;100.00
54308;BME280;40208;39.778;2.710;2023-09-07T01:39:21;101527.94;;;23.58;100.00
54308;BME280;40208;39.778;2.710;2023-09-07T01:42:06;101101.88;;;21.13;100.00
54308;BME280;40208;39.778;2.710;2023-09-07T01:44:51;101351.69;;;22.57;100.00
54308;BME280;40208;39.778;2.710;2023-09-07T01:47:35;101226.56;;;21.92;100.00
54308;BME280;40208;39.778;2.710;2023-09-07T01:50:20;101377.38;;;22.73;100.00
54308;BME280;40208;39.778;2.710;2023-09-07T01:53:05;101279.75;;;22.13;100.00
54308;BME280;40208;39.778;2.710;2023-09-07T01:55:53;101346.31;;;22.67;100.00
54308;BME280;40208;39.778;2.710;2023-09-07T01:58:38;101164.63;;;21.58;100.00
54308;BME280;40208;39.778;2.710;2023-09-07T02:01:24;101365.94;;;22.59;100.00
54308;BME280;40208;39.778;2.710;2023-09-07T02:04:09;101279.03;;;22.11;100.00
54308;BME280;40208;39.778;2.710;2023-09-07T02:06:54;101164.94;;;21.33;100.00
54308;BME280;40208;39.778;2.710;2023-09-07T02:09:38;101327.47;;;22.35;100.00
54308;BME280;40208;39.778;2.710;2023-09-07T02:12:23;101502.94;;;23.44;100.00
54308;BME280;40208;39.778;2.710;2023-09-07T02:15:08;101282.28;;;22.05;100.00
54308;BME280;40208;39.778;2.710;2023-09-07T02:17:53;101167.81;;;21.31;100.00
54308;BME280;40208;39.778;2.710;2023-09-07T02:20:39;101497.53;;;23.44;100.00
54308;BME280;40208;39.778;2.710;2023-09-07T02:23:23;101252.53;;;21.84;100.00
54308;BME280;40208;39.778;2.710;2023-09-07T02:26:08;101207.97;;;21.57;100.00
54308;BME280;40208;39.778;2.710;2023-09-07T02:28:53;101248.56;;;21.88;100.00
54308;BME280;40208;39.778;2.710;2023-09-07T02:31:39;101026.03;;;20.51;100.00
54308;BME280;40208;39.778;2.710;2023-09-07T02:34:24;101196.69;;;21.52;100.00
54308;BME280;40208;39.778;2.710;2023-09-07T02:37:08;101087.09;;;20.96;100.00
54308;BME280;40208;39.778;2.710;2023-09-07T02:39:53;101215.38;;;21.76;100.00
54308;BME280;40208;39.778;2.710;2023-09-07T02:42:37;101169.38;;;21.34;100.00
54308;BME280;40208;39.778;2.710;2023-09-07T02:45:22;101203.44;;;21.57;100.00
54308;BME280;40208;39.778;2.710;2023-09-07T02:48:07;101329.59;;;22.31;100.00
54308;BME280;40208;39.778;2.710;2023-09-07T02:50:52;101230.97;;;21.72;100.00
54308;BME280;40208;39.778;2.710;2023-09-07T02:53:37;101514.25;;;23.28;100.00
54308;BME280;40208;39.778;2.710;2023-09-07T02:56:22;101073.22;;;20.68;100.00
54308;BME280;40208;39.778;2.710;2023-09-07T02:59:07;101239.13;;;21.61;100.00
54308;BME280;40208;39.778;2.710;2023-09-07T03:01:51;101136.34;;;21.09;100.00
54308;BME280;40208;39.778;2.710;2023-09-07T03:04:36;101231.94;;;21.50;100.00
54308;BME280;40208;39.778;2.710;2023-09-07T03:07:21;101432.22;;;22.54;100.00
54308;BME280;40208;39.778;2.710;2023-09-07T03:10:06;101228.78;;;21.34;100.00
54308;BME280;40208;39.778;2.710;2023-09-07T03:12:51;101097.50;;;20.57;100.00
54308;BME280;40208;39.778;2.710;2023-09-07T03:15:36;101249.38;;;21.35;100.00
54308;BME280;40208;39.778;2.710;2023-09-07T03:18:22;101082.56;;;20.42;100.00
54308;BME280;40208;39.778;2.710;2023-09-07T03:21:07;101337.91;;;21.86;100.00
54308;BME280;40208;39.778;2.710;2023-09-07T03:23:52;101306.34;;;21.75;100.00
54308;BME280;40208;39.778;2.710;2023-09-07T03:26:37;101254.44;;;21.28;100.00
54308;BME280;40208;39.778;2.710;2023-09-07T03:29:22;101161.59;;;20.76;100.00
54308;BME280;40208;39.778;2.710;2023-09-07T03:32:07;101072.91;;;20.39;100.00
54308;BME280;40208;39.778;2.710;2023-09-07T03:34:53;101345.22;;;21.95;100.00
54308;BME280;40208;39.778;2.710;2023-09-07T03:37:38;101379.69;;;22.14;100.00
54308;BME280;40208;39.778;2.710;2023-09-07T03:40:23;101140.38;;;20.71;100.00
54308;BME280;40208;39.778;2.710;2023-09-07T03:43:08;101148.09;;;20.76;100.00
54308;BME280;40208;39.778;2.710;2023-09-07T03:45:53;101367.19;;;22.02;100.00
54308;BME280;40208;39.778;2.710;2023-09-07T03:48:38;101290.75;;;21.47;100.00
54308;BME280;40208;39.778;2.710;2023-09-07T03:51:23;101342.66;;;21.94;100.00
54308;BME280;40208;39.778;2.710;2023-09-07T03:54:08;101227.25;;;21.09;100.00
54308;BME280;40208;39.778;2.710;2023-09-07T03:56:53;101214.38;;;21.12;100.00
54308;BME280;40208;39.778;2.710;2023-09-07T03:59:38;101260.44;;;21.32;100.00
54308;BME280;40208;39.778;2.710;2023-09-07T04:02:23;101101.56;;;20.40;100.00
54308;BME280;40208;39.778;2.710;2023-09-07T04:05:09;101310.06;;;21.74;100.00
54308;BME280;40208;39.778;2.710;2023-09-07T04:07:55;101235.22;;;21.10;100.00
54308;BME280;40208;39.778;2.710;2023-09-07T04:10:39;101213.16;;;21.05;100.00
54308;BME280;40208;39.778;2.710;2023-09-07T04:13:24;101493.28;;;22.68;100.00
54308;BME280;40208;39.778;2.710;2023-09-07T04:16:09;101053.19;;;20.16;100.00
54308;BME280;40208;39.778;2.710;2023-09-07T04:18:54;101123.75;;;20.32;100.00
54308;BME280;40208;39.778;2.710;2023-09-07T04:21:39;101201.63;;;21.03;100.00
54308;BME280;40208;39.778;2.710;2023-09-07T04:24:24;101204.63;;;20.89;100.00
54308;BME280;40208;39.778;2.710;2023-09-07T04:27:09;101363.84;;;21.77;100.00
54308;BME280;40208;39.778;2.710;2023-09-07T04:29:53;101360.00;;;21.80;100.00
54308;BME280;40208;39.778;2.710;2023-09-07T04:32:38;101152.78;;;20.51;100.00
54308;BME280;40208;39.778;2.710;2023-09-07T04:35:29;101382.38;;;21.82;100.00
54308;BME280;40208;39.778;2.710;2023-09-07T04:38:15;101118.38;;;20.10;100.00
54308;BME280;40208;39.778;2.710;2023-09-07T04:43:52;101410.00;;;21.86;100.00
54308;BME280;40208;39.778;2.710;2023-09-07T04:46:36;101337.53;;;21.36;100.00
54308;BME280;40208;39.778;2.710;2023-09-07T04:49:23;101039.03;;;19.69;100.00
54308;BME280;40208;39.778;2.710;2023-09-07T04:52:07;101110.56;;;19.96;100.00
54308;BME280;40208;39.778;2.710;2023-09-07T04:54:53;101175.97;;;20.20;100.00
54308;BME280;40208;39.778;2.710;2023-09-07T04:57:38;101440.84;;;21.83;100.00
54308;BME280;40208;39.778;2.710;2023-09-07T05:00:23;101120.59;;;19.94;100.00
54308;BME280;40208;39.778;2.710;2023-09-07T05:03:08;101289.47;;;20.85;100.00
54308;BME280;40208;39.778;2.710;2023-09-07T05:05:53;101097.31;;;19.70;100.00
54308;BME280;40208;39.778;2.710;2023-09-07T05:08:38;101238.09;;;20.41;100.00
54308;BME280;40208;39.778;2.710;2023-09-07T05:11:23;101363.91;;;21.32;100.00
54308;BME280;40208;39.778;2.710;2023-09-07T05:14:08;101221.19;;;20.50;100.00
54308;BME280;40208;39.778;2.710;2023-09-07T05:16:52;101468.09;;;21.91;100.00
54308;BME280;40208;39.778;2.710;2023-09-07T05:19:37;101277.00;;;20.84;100.00
54308;BME280;40208;39.778;2.710;2023-09-07T05:22:22;101293.16;;;20.72;100.00
54308;BME280;40208;39.778;2.710;2023-09-07T05:25:07;101265.09;;;20.64;100.00
54308;BME280;40208;39.778;2.710;2023-09-07T05:27:52;101163.47;;;20.08;100.00
54308;BME280;40208;39.778;2.710;2023-09-07T05:30:37;101162.59;;;20.19;100.00
54308;BME280;40208;39.778;2.710;2023-09-07T05:33:22;101263.22;;;20.64;100.00
54308;BME280;40208;39.778;2.710;2023-09-07T05:36:07;101432.63;;;21.73;100.00
54308;BME280;40208;39.778;2.710;2023-09-07T05:38:52;101120.47;;;19.84;100.00
54308;BME280;40208;39.778;2.710;2023-09-07T05:41:36;101251.59;;;20.52;100.00
54308;BME280;40208;39.778;2.710;2023-09-07T05:44:21;101497.53;;;22.06;100.00
54308;BME280;40208;39.778;2.710;2023-09-07T05:47:06;101513.50;;;22.09;100.00
54308;BME280;40208;39.778;2.710;2023-09-07T05:49:51;101511.06;;;22.06;100.00
54308;BME280;40208;39.778;2.710;2023-09-07T05:52:35;101527.28;;;22.06;100.00
54308;BME280;40208;39.778;2.710;2023-09-07T05:55:20;101458.09;;;21.59;100.00
54308;BME280;40208;39.778;2.710;2023-09-07T05:58:06;101555.78;;;22.10;100.00
54308;BME280;40208;39.778;2.710;2023-09-07T06:00:51;101434.59;;;21.37;100.00
54308;BME280;40208;39.778;2.710;2023-09-07T06:03:37;101336.06;;;20.75;100.00
54308;BME280;40208;39.778;2.710;2023-09-07T06:06:23;101534.66;;;21.92;100.00
54308;BME280;40208;39.778;2.710;2023-09-07T06:09:08;101443.19;;;21.31;100.00
54308;BME280;40208;39.778;2.710;2023-09-07T06:11:53;101421.09;;;21.15;100.00
54308;BME280;40208;39.778;2.710;2023-09-07T06:14:38;101523.38;;;21.53;100.00
54308;BME280;40208;39.778;2.710;2023-09-07T06:17:23;101469.22;;;21.32;100.00
54308;BME280;40208;39.778;2.710;2023-09-07T06:20:08;101421.09;;;21.04;100.00
54308;BME280;40208;39.778;2.710;2023-09-07T06:22:53;101482.47;;;21.35;100.00
54308;BME280;40208;39.778;2.710;2023-09-07T06:25:38;101551.75;;;21.70;100.00
54308;BME280;40208;39.778;2.710;2023-09-07T06:28:23;101440.13;;;21.13;100.00
54308;BME280;40208;39.778;2.710;2023-09-07T06:31:07;101359.38;;;20.65;100.00
54308;BME280;40208;39.778;2.710;2023-09-07T06:33:52;101432.25;;;20.99;100.00
54308;BME280;40208;39.778;2.710;2023-09-07T06:36:37;101429.91;;;20.94;100.00
54308;BME280;40208;39.778;2.710;2023-09-07T06:39:22;101455.47;;;21.13;100.00
54308;BME280;40208;39.778;2.710;2023-09-07T06:42:09;101125.06;;;19.00;100.00
54308;BME280;40208;39.778;2.710;2023-09-07T06:44:57;101336.31;;;20.26;100.00
54308;BME280;40208;39.778;2.710;2023-09-07T06:47:42;101092.84;;;18.63;100.00
54308;BME280;40208;39.778;2.710;2023-09-07T06:50:27;101371.41;;;20.37;100.00
54308;BME280;40208;39.778;2.710;2023-09-07T06:53:12;101518.44;;;21.25;100.00
54308;BME280;40208;39.778;2.710;2023-09-07T06:56:00;101303.44;;;20.09;100.00
54308;BME280;40208;39.778;2.710;2023-09-07T06:58:46;101196.66;;;19.38;100.00
54308;BME280;40208;39.778;2.710;2023-09-07T07:01:30;101204.41;;;19.42;100.00
54308;BME280;40208;39.778;2.710;2023-09-07T07:04:15;101297.44;;;20.06;100.00
54308;BME280;40208;39.778;2.710;2023-09-07T07:07:01;101247.28;;;19.81;100.00
54308;BME280;40208;39.778;2.710;2023-09-07T07:09:48;101307.03;;;20.21;100.00
54308;BME280;40208;39.778;2.710;2023-09-07T07:12:33;101482.59;;;21.34;100.00
54308;BME280;40208;39.778;2.710;2023-09-07T07:15:19;101326.06;;;20.42;100.00
54308;BME280;40208;39.778;2.710;2023-09-07T07:18:04;101467.63;;;21.30;100.00
54308;BME280;40208;39.778;2.710;2023-09-07T07:20:53;101412.66;;;21.31;100.00
54308;BME280;40208;39.778;2.710;2023-09-07T07:23:38;101302.84;;;20.64;100.00
54308;BME280;40208;39.778;2.710;2023-09-07T07:26:23;101317.19;;;20.75;100.00
54308;BME280;40208;39.778;2.710;2023-09-07T07:29:08;101265.22;;;20.62;100.00
54308;BME280;40208;39.778;2.710;2023-09-07T07:31:54;101272.56;;;20.71;100.00
54308;BME280;40208;39.778;2.710;2023-09-07T07:34:38;101425.16;;;21.66;100.00
54308;BME280;40208;39.778;2.710;2023-09-07T07:37:23;101351.25;;;21.33;100.00
54308;BME280;40208;39.778;2.710;2023-09-07T07:40:09;101248.03;;;20.86;100.00
54308;BME280;40208;39.778;2.710;2023-09-07T07:42:54;101238.34;;;20.83;100.00
54308;BME280;40208;39.778;2.710;2023-09-07T07:45:39;101286.22;;;21.36;100.00
54308;BME280;40208;39.778;2.710;2023-09-07T07:48:24;101592.13;;;23.15;100.00
54308;BME280;40208;39.778;2.710;2023-09-07T07:51:08;101221.75;;;20.99;100.00
54308;BME280;40208;39.778;2.710;2023-09-07T07:53:54;101214.59;;;21.09;100.00
54308;BME280;40208;39.778;2.710;2023-09-07T07:56:41;101270.34;;;21.54;100.00
54308;BME280;40208;39.778;2.710;2023-09-07T07:59:25;101343.72;;;22.02;100.00
54308;BME280;40208;39.778;2.710;2023-09-07T08:02:10;101489.28;;;23.04;100.00
54308;BME280;40208;39.778;2.710;2023-09-07T08:04:55;101295.47;;;21.98;100.00
54308;BME280;40208;39.778;2.710;2023-09-07T08:07:39;101153.25;;;21.11;100.00
54308;BME280;40208;39.778;2.710;2023-09-07T08:10:24;101183.63;;;21.36;100.00
54308;BME280;40208;39.778;2.710;2023-09-07T08:13:09;101529.94;;;23.35;100.00
54308;BME280;40208;39.778;2.710;2023-09-07T08:15:54;101498.63;;;23.42;100.00
54308;BME280;40208;39.778;2.710;2023-09-07T08:18:38;101452.94;;;23.27;100.00
54308;BME280;40208;39.778;2.710;2023-09-07T08:21:24;101503.84;;;23.55;100.00
54308;BME280;40208;39.778;2.710;2023-09-07T08:24:09;101509.28;;;23.64;100.00
54308;BME280;40208;39.778;2.710;2023-09-07T08:26:54;101513.91;;;23.74;100.00
54308;BME280;40208;39.778;2.710;2023-09-07T08:29:40;101514.66;;;23.76;100.00
54308;BME280;40208;39.778;2.710;2023-09-07T08:32:24;101338.13;;;22.78;100.00
54308;BME280;40208;39.778;2.710;2023-09-07T08:35:09;101206.25;;;22.19;100.00
54308;BME280;40208;39.778;2.710;2023-09-07T08:37:57;101187.13;;;22.11;100.00
54308;BME280;40208;39.778;2.710;2023-09-07T08:40:43;101555.88;;;24.29;100.00
54308;BME280;40208;39.778;2.710;2023-09-07T08:43:33;101457.88;;;23.84;100.00
54308;BME280;40208;39.778;2.710;2023-09-07T08:46:19;101535.19;;;24.38;100.00
54308;BME280;40208;39.778;2.710;2023-09-07T08:49:06;101509.91;;;24.28;100.00
54308;BME280;40208;39.778;2.710;2023-09-07T08:51:52;101573.53;;;24.74;100.00
54308;BME280;40208;39.778;2.710;2023-09-07T08:54:38;101439.22;;;24.00;100.00
54308;BME280;40208;39.778;2.710;2023-09-07T08:57:23;101554.97;;;24.79;100.00
54308;BME280;40208;39.778;2.710;2023-09-07T09:00:09;101436.94;;;24.05;100.00
54308;BME280;40208;39.778;2.710;2023-09-07T09:02:59;101600.41;;;25.16;100.00
54308;BME280;40208;39.778;2.710;2023-09-07T09:05:45;101487.66;;;24.53;100.00
54308;BME280;40208;39.778;2.710;2023-09-07T09:08:51;101557.66;;;24.98;100.00
54308;BME280;40208;39.778;2.710;2023-09-07T09:11:38;101506.09;;;24.69;100.00
54308;BME280;40208;39.778;2.710;2023-09-07T09:14:23;101584.56;;;25.21;100.00
54308;BME280;40208;39.778;2.710;2023-09-07T09:17:11;101392.56;;;24.06;100.00
54308;BME280;40208;39.778;2.710;2023-09-07T09:19:56;101430.22;;;24.39;100.00
54308;BME280;40208;39.778;2.710;2023-09-07T09:22:41;101600.50;;;25.44;100.00
54308;BME280;40208;39.778;2.710;2023-09-07T09:25:26;101584.50;;;25.41;100.00
54308;BME280;40208;39.778;2.710;2023-09-07T09:28:11;101431.56;;;24.54;100.00
54308;BME280;40208;39.778;2.710;2023-09-07T09:30:56;101609.50;;;25.64;100.00
54308;BME280;40208;39.778;2.710;2023-09-07T09:33:42;101397.22;;;24.43;100.00
54308;BME280;40208;39.778;2.710;2023-09-07T09:36:33;101462.19;;;24.93;100.00
54308;BME280;40208;39.778;2.710;2023-09-07T09:39:23;101435.78;;;24.86;100.00
54308;BME280;40208;39.778;2.710;2023-09-07T09:42:09;101403.97;;;24.68;100.00
54308;BME280;40208;39.778;2.710;2023-09-07T09:44:54;101354.69;;;24.34;100.00
54308;BME280;40208;39.778;2.710;2023-09-07T09:47:42;101564.78;;;25.76;100.00
54308;BME280;40208;39.778;2.710;2023-09-07T09:50:27;101564.78;;;25.76;100.00
54308;BME280;40208;39.778;2.710;2023-09-07T09:53:12;101500.25;;;25.41;100.00
54308;BME280;40208;39.778;2.710;2023-09-07T09:56:03;101292.22;;;24.06;100.00
54308;BME280;40208;39.778;2.710;2023-09-07T09:58:48;101423.19;;;24.94;100.00
54308;BME280;40208;39.778;2.710;2023-09-07T10:01:43;101243.41;;;24.06;100.00
54308;BME280;40208;39.778;2.710;2023-09-07T10:04:29;101289.44;;;24.36;100.00
54308;BME280;40208;39.778;2.710;2023-09-07T10:07:14;101314.13;;;24.42;100.00
54308;BME280;40208;39.778;2.710;2023-09-07T10:09:59;101301.44;;;24.33;100.00
54308;BME280;40208;39.778;2.710;2023-09-07T10:12:52;101481.94;;;25.43;100.00
54308;BME280;40208;39.778;2.710;2023-09-07T10:15:40;101405.78;;;25.15;100.00
54308;BME280;40208;39.778;2.710;2023-09-07T10:18:35;101356.34;;;24.74;100.00
54308;BME280;40208;39.778;2.710;2023-09-07T10:21:24;101295.59;;;24.47;100.00
54308;BME280;40208;39.778;2.710;2023-09-07T10:24:10;101266.47;;;24.30;100.00
54308;BME280;40208;39.778;2.710;2023-09-07T10:27:08;101467.59;;;25.50;100.00
54308;BME280;40208;39.778;2.710;2023-09-07T10:29:55;101359.00;;;24.93;100.00
54308;BME280;40208;39.778;2.710;2023-09-07T10:32:40;101385.84;;;25.06;100.00
54308;BME280;40208;39.778;2.710;2023-09-07T10:35:26;101321.31;;;24.81;100.00
54308;BME280;40208;39.778;2.710;2023-09-07T10:38:15;101264.13;;;24.54;100.00
54308;BME280;40208;39.778;2.710;2023-09-07T10:41:02;101406.75;;;25.33;100.00
54308;BME280;40208;39.778;2.710;2023-09-07T10:43:51;101178.88;;;24.10;100.00
54308;BME280;40208;39.778;2.710;2023-09-07T10:46:37;101235.03;;;24.37;100.00
54308;BME280;40208;39.778;2.710;2023-09-07T10:49:23;101342.31;;;25.26;100.00
54308;BME280;40208;39.778;2.710;2023-09-07T10:52:08;101318.31;;;25.11;100.00
54308;BME280;40208;39.778;2.710;2023-09-07T10:54:56;101463.63;;;26.00;100.00
54308;BME280;40208;39.778;2.710;2023-09-07T10:57:46;101229.06;;;24.71;100.00
54308;BME280;40208;39.778;2.710;2023-09-07T11:00:32;101257.81;;;24.91;100.00
54308;BME280;40208;39.778;2.710;2023-09-07T11:03:16;101342.63;;;25.41;100.00
54308;BME280;40208;39.778;2.710;2023-09-07T11:06:03;101560.03;;;26.79;100.00
54308;BME280;40208;39.778;2.710;2023-09-07T11:08:48;101214.41;;;24.64;100.00
54308;BME280;40208;39.778;2.710;2023-09-07T11:19:13;101415.91;;;25.88;100.00
54308;BME280;40208;39.778;2.710;2023-09-07T11:21:59;101343.34;;;25.43;100.00
54308;BME280;40208;39.778;2.710;2023-09-07T11:24:45;101179.09;;;24.64;97.29
54308;BME280;40208;39.778;2.710;2023-09-07T11:27:31;101332.16;;;25.46;95.63
54308;BME280;40208;39.778;2.710;2023-09-07T11:30:16;101446.16;;;26.20;95.65
54308;BME280;40208;39.778;2.710;2023-09-07T11:33:08;101243.97;;;25.12;93.79
54308;BME280;40208;39.778;2.710;2023-09-07T11:36:02;101549.69;;;27.00;95.73
54308;BME280;40208;39.778;2.710;2023-09-07T11:38:47;101528.44;;;26.86;94.76
54308;BME280;40208;39.778;2.710;2023-09-07T11:41:32;101233.03;;;25.04;95.72
54308;BME280;40208;39.778;2.710;2023-09-07T11:44:20;101156.78;;;24.70;96.66
54308;BME280;40208;39.778;2.710;2023-09-07T11:47:05;101164.09;;;24.87;95.29
54308;BME280;40208;39.778;2.710;2023-09-07T11:49:50;101338.97;;;25.77;94.92
54308;BME280;40208;39.778;2.710;2023-09-07T11:52:37;101436.13;;;26.39;94.25
54308;BME280;40208;39.778;2.710;2023-09-07T11:55:22;101443.19;;;26.50;95.75
54308;BME280;40208;39.778;2.710;2023-09-07T11:58:07;101426.00;;;26.31;96.19
54308;BME280;40208;39.778;2.710;2023-09-07T12:00:52;101543.06;;;27.21;95.68
54308;BME280;40208;39.778;2.710;2023-09-07T12:03:37;101516.81;;;27.02;95.60
54308;BME280;40208;39.778;2.710;2023-09-07T12:06:22;101154.41;;;24.85;96.74
54308;BME280;40208;39.778;2.710;2023-09-07T12:09:08;101561.19;;;27.30;98.27
54308;BME280;40208;39.778;2.710;2023-09-07T12:11:54;101328.31;;;25.84;99.60
54308;BME280;40208;39.778;2.710;2023-09-07T12:14:39;101434.69;;;26.53;97.95
54308;BME280;40208;39.778;2.710;2023-09-07T12:17:24;101354.13;;;26.16;98.51
54308;BME280;40208;39.778;2.710;2023-09-07T12:20:09;101249.16;;;25.51;99.72
54308;BME280;40208;39.778;2.710;2023-09-07T12:23:03;101481.50;;;26.92;100.00
54308;BME280;40208;39.778;2.710;2023-09-07T12:35:40;101517.41;;;27.14;97.21
54308;BME280;40208;39.778;2.710;2023-09-07T12:38:25;101413.66;;;26.55;97.70
54308;BME280;40208;39.778;2.710;2023-09-07T12:41:12;101547.91;;;27.35;98.67
54308;BME280;40208;39.778;2.710;2023-09-07T12:43:57;101436.34;;;26.81;97.23
54308;BME280;40208;39.778;2.710;2023-09-07T12:46:42;101535.84;;;27.38;95.46
54308;BME280;40208;39.778;2.710;2023-09-07T12:49:27;101492.56;;;27.17;93.67
54308;BME280;40208;39.778;2.710;2023-09-07T12:52:11;101459.78;;;27.00;93.85
54308;BME280;40208;39.778;2.710;2023-09-07T12:54:57;101475.53;;;27.15;95.02
54308;BME280;40208;39.778;2.710;2023-09-07T12:57:42;101488.22;;;27.24;93.57
54308;BME280;40208;39.778;2.710;2023-09-07T13:00:28;101385.66;;;26.62;92.27
54308;BME280;40208;39.778;2.710;2023-09-07T13:03:15;101488.59;;;27.29;93.32
54308;BME280;40208;39.778;2.710;2023-09-07T13:06:00;101507.13;;;27.52;92.99
54308;BME280;40208;39.778;2.710;2023-09-07T13:08:45;101377.25;;;26.82;92.92
54308;BME280;40208;39.778;2.710;2023-09-07T13:11:30;101483.41;;;27.52;93.45
54308;BME280;40208;39.778;2.710;2023-09-07T13:14:15;101503.19;;;27.54;93.53
54308;BME280;40208;39.778;2.710;2023-09-07T13:16:59;101502.59;;;27.68;94.28
54308;BME280;40208;39.778;2.710;2023-09-07T13:19:44;101459.00;;;27.42;94.49
54308;BME280;40208;39.778;2.710;2023-09-07T13:22:29;101490.00;;;27.76;93.70
54308;BME280;40208;39.778;2.710;2023-09-07T13:25:14;101495.25;;;27.69;93.25
54308;BME280;40208;39.778;2.710;2023-09-07T13:27:58;101457.19;;;27.51;93.07
54308;BME280;40208;39.778;2.710;2023-09-07T13:30:43;101448.84;;;27.53;92.91
54308;BME280;40208;39.778;2.710;2023-09-07T13:33:28;101484.06;;;27.80;92.44
54308;BME280;40208;39.778;2.710;2023-09-07T13:36:14;101376.56;;;27.14;91.18
54308;BME280;40208;39.778;2.710;2023-09-07T13:38:59;101482.16;;;27.81;91.52
54308;BME280;40208;39.778;2.710;2023-09-07T13:41:44;101485.63;;;27.83;89.76
54308;BME280;40208;39.778;2.710;2023-09-07T13:44:29;101391.47;;;27.20;87.84
54308;BME280;40208;39.778;2.710;2023-09-07T13:47:13;101464.38;;;27.60;88.76
54308;BME280;40208;39.778;2.710;2023-09-07T13:49:58;101253.72;;;26.31;88.03
54308;BME280;40208;39.778;2.710;2023-09-07T13:52:43;101382.88;;;27.15;87.06
54308;BME280;40208;39.778;2.710;2023-09-07T13:55:28;101462.34;;;27.62;85.50
54308;BME280;40208;39.778;2.710;2023-09-07T13:58:13;101252.06;;;26.38;85.64
54308;BME280;40208;39.778;2.710;2023-09-07T14:00:58;101484.91;;;27.81;87.13
54308;BME280;40208;39.778;2.710;2023-09-07T14:03:42;101410.44;;;27.38;89.29
54308;BME280;40208;39.778;2.710;2023-09-07T14:06:27;101486.31;;;27.85;91.66
54308;BME280;40208;39.778;2.710;2023-09-07T14:09:12;101486.16;;;27.86;92.61
54308;BME280;40208;39.778;2.710;2023-09-07T14:11:58;101505.63;;;27.91;95.28
54308;BME280;40208;39.778;2.710;2023-09-07T14:14:43;101491.63;;;27.95;98.10
54308;BME280;40208;39.778;2.710;2023-09-07T14:17:28;101455.78;;;27.81;99.91
54308;BME280;40208;39.778;2.710;2023-09-07T14:20:12;101431.13;;;27.57;100.00
54308;BME280;40208;39.778;2.710;2023-09-07T14:22:58;101498.47;;;27.90;100.00
54308;BME280;40208;39.778;2.710;2023-09-07T14:25:44;101411.66;;;27.43;100.00
54308;BME280;40208;39.778;2.710;2023-09-07T14:28:29;101497.28;;;27.93;100.00
54308;BME280;40208;39.778;2.710;2023-09-07T14:31:14;101439.78;;;27.52;100.00
54308;BME280;40208;39.778;2.710;2023-09-07T14:33:58;101415.09;;;27.54;100.00
54308;BME280;40208;39.778;2.710;2023-09-07T14:36:43;101482.94;;;27.99;100.00
54308;BME280;40208;39.778;2.710;2023-09-07T14:39:28;101433.75;;;27.75;100.00
54308;BME280;40208;39.778;2.710;2023-09-07T14:42:14;101426.75;;;27.80;100.00